sensor_id;sensor_type;location;lat;lon;timestamp;pressure;altitude;pressure_sealevel;temperature;humidity
12775;BME280;6451;42.630;23.382;2022-10-17T00:01:07;95671.44;;;7.52;100.00
12775;BME280;6451;42.630;23.382;2022-10-17T00:03:37;95690.47;;;7.61;100.00
12775;BME280;6451;42.630;23.382;2022-10-17T00:06:06;95691.03;;;7.58;100.00
12775;BME280;6451;42.630;23.382;2022-10-17T00:08:34;95707.19;;;7.63;100.00
12775;BME280;6451;42.630;23.382;2022-10-17T00:11:03;95631.94;;;7.19;100.00
12775;BME280;6451;42.630;23.382;2022-10-17T00:13:31;95703.84;;;7.52;100.00
12775;BME280;6451;42.630;23.382;2022-10-17T00:15:59;95709.97;;;7.39;100.00
12775;BME280;6451;42.630;23.382;2022-10-17T00:18:26;95715.94;;;7.17;100.00
12775;BME280;6451;42.630;23.382;2022-10-17T00:20:54;95712.34;;;7.03;100.00
12775;BME280;6451;42.630;23.382;2022-10-17T00:23:21;95712.41;;;6.98;100.00
12775;BME280;6451;42.630;23.382;2022-10-17T00:25:57;95686.19;;;6.80;100.00
12775;BME280;6451;42.630;23.382;2022-10-17T00:28:25;95711.38;;;6.94;100.00
12775;BME280;6451;42.630;23.382;2022-10-17T00:30:56;95702.66;;;6.78;100.00
12775;BME280;6451;42.630;23.382;2022-10-17T00:33:23;95665.47;;;6.51;100.00
12775;BME280;6451;42.630;23.382;2022-10-17T00:35:50;95670.81;;;6.56;100.00
12775;BME280;6451;42.630;23.382;2022-10-17T00:38:18;95690.91;;;6.69;100.00
12775;BME280;6451;42.630;23.382;2022-10-17T00:40:45;95718.88;;;6.97;100.00
12775;BME280;6451;42.630;23.382;2022-10-17T00:43:14;95702.09;;;6.81;100.00
12775;BME280;6451;42.630;23.382;2022-10-17T00:45:42;95730.25;;;6.94;100.00
12775;BME280;6451;42.630;23.382;2022-10-17T00:48:10;95726.47;;;6.95;100.00
12775;BME280;6451;42.630;23.382;2022-10-17T00:50:39;95730.66;;;7.06;100.00
12775;BME280;6451;42.630;23.382;2022-10-17T00:53:08;95723.63;;;7.05;100.00
12775;BME280;6451;42.630;23.382;2022-10-17T00:55:41;95692.16;;;6.77;100.00
12775;BME280;6451;42.630;23.382;2022-10-17T00:58:11;95732.66;;;6.95;100.00
12775;BME280;6451;42.630;23.382;2022-10-17T01:00:39;95730.84;;;6.91;100.00
12775;BME280;6451;42.630;23.382;2022-10-17T01:03:06;95629.94;;;6.25;100.00
12775;BME280;6451;42.630;23.382;2022-10-17T01:05:34;95696.66;;;6.62;100.00
12775;BME280;6451;42.630;23.382;2022-10-17T01:08:02;95736.31;;;6.86;100.00
12775;BME280;6451;42.630;23.382;2022-10-17T01:10:32;95724.47;;;6.82;100.00
12775;BME280;6451;42.630;23.382;2022-10-17T01:13:09;95705.53;;;6.63;100.00
12775;BME280;6451;42.630;23.382;2022-10-17T01:15:48;95721.59;;;6.73;100.00
12775;BME280;6451;42.630;23.382;2022-10-17T01:18:28;95725.97;;;6.69;100.00
12775;BME280;6451;42.630;23.382;2022-10-17T01:21:16;95659.25;;;6.32;100.00
12775;BME280;6451;42.630;23.382;2022-10-17T01:27:13;95721.03;;;6.76;100.00
12775;BME280;6451;42.630;23.382;2022-10-17T01:29:56;95674.75;;;6.45;100.00
12775;BME280;6451;42.630;23.382;2022-10-17T01:32:34;95672.84;;;6.46;100.00
12775;BME280;6451;42.630;23.382;2022-10-17T01:35:08;95726.66;;;6.80;100.00
12775;BME280;6451;42.630;23.382;2022-10-17T01:37:42;95724.88;;;6.70;100.00
12775;BME280;6451;42.630;23.382;2022-10-17T01:40:13;95620.28;;;5.95;100.00
12775;BME280;6451;42.630;23.382;2022-10-17T01:42:47;95691.56;;;6.37;100.00
12775;BME280;6451;42.630;23.382;2022-10-17T01:45:19;95732.47;;;6.44;100.00
12775;BME280;6451;42.630;23.382;2022-10-17T01:47:51;95679.84;;;5.89;100.00
12775;BME280;6451;42.630;23.382;2022-10-17T01:50:24;95737.13;;;6.33;100.00
12775;BME280;6451;42.630;23.382;2022-10-17T01:52:56;95709.31;;;6.14;100.00
12775;BME280;6451;42.630;23.382;2022-10-17T01:55:29;95710.19;;;6.04;100.00
12775;BME280;6451;42.630;23.382;2022-10-17T01:58:02;95742.31;;;6.30;100.00
12775;BME280;6451;42.630;23.382;2022-10-17T02:00:34;95744.41;;;6.33;100.00
12775;BME280;6451;42.630;23.382;2022-10-17T02:03:06;95641.91;;;5.56;100.00
12775;BME280;6451;42.630;23.382;2022-10-17T02:05:38;95622.13;;;5.37;100.00
12775;BME280;6451;42.630;23.382;2022-10-17T02:08:06;95712.47;;;5.92;100.00
12775;BME280;6451;42.630;23.382;2022-10-17T02:10:38;95735.28;;;6.00;100.00
12775;BME280;6451;42.630;23.382;2022-10-17T02:13:12;95739.31;;;6.02;100.00
12775;BME280;6451;42.630;23.382;2022-10-17T02:15:58;95686.47;;;5.67;100.00
12775;BME280;6451;42.630;23.382;2022-10-17T02:18:46;95755.44;;;6.07;100.00
12775;BME280;6451;42.630;23.382;2022-10-17T02:21:21;95755.47;;;6.02;100.00
12775;BME280;6451;42.630;23.382;2022-10-17T02:23:53;95757.88;;;6.04;100.00
12775;BME280;6451;42.630;23.382;2022-10-17T02:26:27;95748.47;;;6.01;100.00
12775;BME280;6451;42.630;23.382;2022-10-17T02:29:03;95733.22;;;5.92;100.00
12775;BME280;6451;42.630;23.382;2022-10-17T02:31:37;95770.13;;;5.91;100.00
12775;BME280;6451;42.630;23.382;2022-10-17T02:34:08;95761.47;;;5.94;100.00
12775;BME280;6451;42.630;23.382;2022-10-17T02:36:42;95740.09;;;5.69;100.00
12775;BME280;6451;42.630;23.382;2022-10-17T02:39:11;95675.19;;;5.31;100.00
12775;BME280;6451;42.630;23.382;2022-10-17T02:41:39;95765.03;;;5.79;100.00
12775;BME280;6451;42.630;23.382;2022-10-17T02:44:07;95769.13;;;5.77;100.00
12775;BME280;6451;42.630;23.382;2022-10-17T02:46:37;95766.38;;;5.82;100.00
12775;BME280;6451;42.630;23.382;2022-10-17T02:49:11;95728.06;;;5.51;100.00
12775;BME280;6451;42.630;23.382;2022-10-17T02:51:45;95774.50;;;5.77;100.00
12775;BME280;6451;42.630;23.382;2022-10-17T02:54:17;95652.56;;;4.93;100.00
12775;BME280;6451;42.630;23.382;2022-10-17T02:56:49;95775.53;;;5.81;100.00
12775;BME280;6451;42.630;23.382;2022-10-17T02:59:19;95735.41;;;5.45;100.00
12775;BME280;6451;42.630;23.382;2022-10-17T03:01:47;95724.66;;;5.40;100.00
12775;BME280;6451;42.630;23.382;2022-10-17T03:04:17;95795.50;;;5.75;100.00
12775;BME280;6451;42.630;23.382;2022-10-17T03:06:46;95803.06;;;5.73;100.00
12775;BME280;6451;42.630;23.382;2022-10-17T03:09:13;95790.44;;;5.68;100.00
12775;BME280;6451;42.630;23.382;2022-10-17T03:11:41;95794.97;;;5.78;100.00
12775;BME280;6451;42.630;23.382;2022-10-17T03:14:08;95800.31;;;5.83;100.00
12775;BME280;6451;42.630;23.382;2022-10-17T03:16:35;95802.16;;;5.88;100.00
12775;BME280;6451;42.630;23.382;2022-10-17T03:19:02;95733.84;;;5.34;100.00
12775;BME280;6451;42.630;23.382;2022-10-17T03:21:30;95708.00;;;5.33;100.00
12775;BME280;6451;42.630;23.382;2022-10-17T03:23:57;95800.50;;;5.97;100.00
12775;BME280;6451;42.630;23.382;2022-10-17T03:26:24;95781.47;;;5.83;100.00
12775;BME280;6451;42.630;23.382;2022-10-17T03:28:51;95805.13;;;5.86;100.00
12775;BME280;6451;42.630;23.382;2022-10-17T03:31:18;95799.97;;;5.95;100.00
12775;BME280;6451;42.630;23.382;2022-10-17T03:33:45;95795.41;;;5.95;100.00
12775;BME280;6451;42.630;23.382;2022-10-17T03:36:15;95738.00;;;5.55;100.00
12775;BME280;6451;42.630;23.382;2022-10-17T03:38:44;95777.91;;;5.93;100.00
12775;BME280;6451;42.630;23.382;2022-10-17T03:41:11;95801.88;;;5.89;100.00
12775;BME280;6451;42.630;23.382;2022-10-17T03:43:38;95756.84;;;5.61;100.00
12775;BME280;6451;42.630;23.382;2022-10-17T03:46:06;95801.88;;;5.94;100.00
12775;BME280;6451;42.630;23.382;2022-10-17T03:48:33;95776.44;;;5.66;100.00
12775;BME280;6451;42.630;23.382;2022-10-17T03:51:01;95802.47;;;5.81;100.00
12775;BME280;6451;42.630;23.382;2022-10-17T03:53:35;95787.50;;;5.65;100.00
12775;BME280;6451;42.630;23.382;2022-10-17T03:56:11;95793.69;;;5.65;100.00
12775;BME280;6451;42.630;23.382;2022-10-17T03:58:40;95803.13;;;5.68;100.00
12775;BME280;6451;42.630;23.382;2022-10-17T04:01:09;95808.91;;;5.85;100.00
12775;BME280;6451;42.630;23.382;2022-10-17T04:03:36;95812.13;;;5.92;100.00
12775;BME280;6451;42.630;23.382;2022-10-17T04:06:04;95808.44;;;5.78;100.00
12775;BME280;6451;42.630;23.382;2022-10-17T04:08:32;95811.63;;;5.85;100.00
12775;BME280;6451;42.630;23.382;2022-10-17T04:10:59;95807.13;;;5.70;100.00
12775;BME280;6451;42.630;23.382;2022-10-17T04:13:28;95809.25;;;5.73;100.00
12775;BME280;6451;42.630;23.382;2022-10-17T04:15:55;95806.13;;;5.56;100.00
12775;BME280;6451;42.630;23.382;2022-10-17T04:18:23;95805.63;;;5.49;100.00
12775;BME280;6451;42.630;23.382;2022-10-17T04:20:50;95823.09;;;5.56;100.00
12775;BME280;6451;42.630;23.382;2022-10-17T04:23:17;95816.63;;;5.57;100.00
12775;BME280;6451;42.630;23.382;2022-10-17T04:25:44;95797.28;;;5.50;100.00
12775;BME280;6451;42.630;23.382;2022-10-17T04:28:11;95826.22;;;5.74;100.00
12775;BME280;6451;42.630;23.382;2022-10-17T04:30:40;95807.41;;;5.69;100.00
12775;BME280;6451;42.630;23.382;2022-10-17T04:33:07;95821.91;;;5.73;100.00
12775;BME280;6451;42.630;23.382;2022-10-17T04:35:34;95827.59;;;5.66;100.00
12775;BME280;6451;42.630;23.382;2022-10-17T04:38:01;95821.91;;;5.73;100.00
12775;BME280;6451;42.630;23.382;2022-10-17T04:40:28;95815.28;;;5.60;100.00
12775;BME280;6451;42.630;23.382;2022-10-17T04:42:55;95825.19;;;5.70;100.00
12775;BME280;6451;42.630;23.382;2022-10-17T04:45:21;95821.50;;;5.50;100.00
12775;BME280;6451;42.630;23.382;2022-10-17T04:47:50;95834.44;;;5.53;100.00
12775;BME280;6451;42.630;23.382;2022-10-17T04:50:17;95832.03;;;5.47;100.00
12775;BME280;6451;42.630;23.382;2022-10-17T04:52:43;95833.63;;;5.48;100.00
12775;BME280;6451;42.630;23.382;2022-10-17T04:55:10;95836.34;;;5.43;100.00
12775;BME280;6451;42.630;23.382;2022-10-17T04:57:37;95846.81;;;5.44;100.00
12775;BME280;6451;42.630;23.382;2022-10-17T05:00:05;95813.47;;;5.40;100.00
12775;BME280;6451;42.630;23.382;2022-10-17T05:02:34;95848.91;;;5.63;100.00
12775;BME280;6451;42.630;23.382;2022-10-17T05:05:06;95845.94;;;5.64;100.00
12775;BME280;6451;42.630;23.382;2022-10-17T05:07:32;95846.22;;;5.63;100.00
12775;BME280;6451;42.630;23.382;2022-10-17T05:10:03;95849.41;;;5.70;100.00
12775;BME280;6451;42.630;23.382;2022-10-17T05:12:30;95847.81;;;5.69;100.00
12775;BME280;6451;42.630;23.382;2022-10-17T05:14:56;95857.72;;;5.73;100.00
12775;BME280;6451;42.630;23.382;2022-10-17T05:17:23;95863.91;;;5.79;100.00
12775;BME280;6451;42.630;23.382;2022-10-17T05:19:50;95842.38;;;5.74;100.00
12775;BME280;6451;42.630;23.382;2022-10-17T05:22:19;95839.91;;;5.82;100.00
12775;BME280;6451;42.630;23.382;2022-10-17T05:24:46;95862.53;;;5.92;100.00
12775;BME280;6451;42.630;23.382;2022-10-17T05:27:13;95872.41;;;6.01;100.00
12775;BME280;6451;42.630;23.382;2022-10-17T05:29:40;95857.88;;;5.97;100.00
12775;BME280;6451;42.630;23.382;2022-10-17T05:32:07;95872.34;;;6.11;100.00
12775;BME280;6451;42.630;23.382;2022-10-17T05:34:34;95869.91;;;6.15;100.00
12775;BME280;6451;42.630;23.382;2022-10-17T05:37:01;95869.81;;;6.25;100.00
12775;BME280;6451;42.630;23.382;2022-10-17T05:39:29;95865.09;;;6.46;100.00
12775;BME280;6451;42.630;23.382;2022-10-17T05:41:56;95864.41;;;6.30;100.00
12775;BME280;6451;42.630;23.382;2022-10-17T05:44:23;95877.56;;;6.37;100.00
12775;BME280;6451;42.630;23.382;2022-10-17T05:46:50;95875.09;;;6.40;100.00
12775;BME280;6451;42.630;23.382;2022-10-17T05:49:19;95853.22;;;6.47;100.00
12775;BME280;6451;42.630;23.382;2022-10-17T05:51:46;95862.97;;;6.72;100.00
12775;BME280;6451;42.630;23.382;2022-10-17T05:54:12;95877.72;;;6.80;100.00
12775;BME280;6451;42.630;23.382;2022-10-17T05:56:41;95877.25;;;7.02;100.00
12775;BME280;6451;42.630;23.382;2022-10-17T05:59:08;95856.63;;;6.87;100.00
12775;BME280;6451;42.630;23.382;2022-10-17T06:01:34;95880.75;;;7.02;100.00
12775;BME280;6451;42.630;23.382;2022-10-17T06:04:01;95885.81;;;7.09;100.00
12775;BME280;6451;42.630;23.382;2022-10-17T06:06:28;95880.25;;;7.24;100.00
12775;BME280;6451;42.630;23.382;2022-10-17T06:08:55;95858.00;;;7.13;100.00
12775;BME280;6451;42.630;23.382;2022-10-17T06:11:22;95885.66;;;7.48;100.00
12775;BME280;6451;42.630;23.382;2022-10-17T06:13:50;95888.22;;;7.82;100.00
12775;BME280;6451;42.630;23.382;2022-10-17T06:16:17;95886.97;;;7.74;100.00
12775;BME280;6451;42.630;23.382;2022-10-17T06:18:44;95884.56;;;7.92;100.00
12775;BME280;6451;42.630;23.382;2022-10-17T06:21:14;95874.31;;;7.89;100.00
12775;BME280;6451;42.630;23.382;2022-10-17T06:23:42;95903.38;;;8.21;100.00
12775;BME280;6451;42.630;23.382;2022-10-17T06:26:09;95896.06;;;8.21;100.00
12775;BME280;6451;42.630;23.382;2022-10-17T06:28:36;95907.75;;;8.17;100.00
12775;BME280;6451;42.630;23.382;2022-10-17T06:31:05;95905.88;;;8.36;100.00
12775;BME280;6451;42.630;23.382;2022-10-17T06:33:34;95883.94;;;8.38;100.00
12775;BME280;6451;42.630;23.382;2022-10-17T06:36:01;95914.59;;;8.66;100.00
12775;BME280;6451;42.630;23.382;2022-10-17T06:38:29;95887.72;;;8.55;100.00
12775;BME280;6451;42.630;23.382;2022-10-17T06:41:02;95901.03;;;8.52;100.00
12775;BME280;6451;42.630;23.382;2022-10-17T06:43:29;95912.81;;;8.61;100.00
12775;BME280;6451;42.630;23.382;2022-10-17T06:45:56;95885.97;;;8.27;100.00
12775;BME280;6451;42.630;23.382;2022-10-17T06:48:24;95917.06;;;8.81;100.00
12775;BME280;6451;42.630;23.382;2022-10-17T06:50:51;95917.03;;;9.00;100.00
12775;BME280;6451;42.630;23.382;2022-10-17T06:53:18;95917.13;;;8.95;100.00
12775;BME280;6451;42.630;23.382;2022-10-17T06:55:50;95910.44;;;9.06;100.00
12775;BME280;6451;42.630;23.382;2022-10-17T06:58:17;95916.66;;;9.20;100.00
12775;BME280;6451;42.630;23.382;2022-10-17T07:00:44;95916.69;;;9.34;100.00
12775;BME280;6451;42.630;23.382;2022-10-17T07:03:11;95910.06;;;9.26;100.00
12775;BME280;6451;42.630;23.382;2022-10-17T07:05:42;95911.25;;;9.06;100.00
12775;BME280;6451;42.630;23.382;2022-10-17T07:08:17;95916.50;;;9.58;100.00
12775;BME280;6451;42.630;23.382;2022-10-17T07:10:43;95914.91;;;9.84;100.00
12775;BME280;6451;42.630;23.382;2022-10-17T07:13:10;95915.41;;;10.00;100.00
12775;BME280;6451;42.630;23.382;2022-10-17T07:15:38;95917.56;;;10.12;100.00
12775;BME280;6451;42.630;23.382;2022-10-17T07:18:05;95904.53;;;10.14;100.00
12775;BME280;6451;42.630;23.382;2022-10-17T07:20:32;95909.25;;;10.08;100.00
12775;BME280;6451;42.630;23.382;2022-10-17T07:23:01;95908.91;;;10.37;100.00
12775;BME280;6451;42.630;23.382;2022-10-17T07:25:28;95906.94;;;10.29;100.00
12775;BME280;6451;42.630;23.382;2022-10-17T07:27:55;95909.84;;;10.55;100.00
12775;BME280;6451;42.630;23.382;2022-10-17T07:30:23;95892.56;;;10.28;100.00
12775;BME280;6451;42.630;23.382;2022-10-17T07:32:51;95903.50;;;10.37;100.00
12775;BME280;6451;42.630;23.382;2022-10-17T07:35:18;95915.19;;;10.60;100.00
12775;BME280;6451;42.630;23.382;2022-10-17T07:37:45;95922.09;;;10.66;100.00
12775;BME280;6451;42.630;23.382;2022-10-17T07:40:14;95893.03;;;10.67;100.00
12775;BME280;6451;42.630;23.382;2022-10-17T07:42:41;95915.25;;;10.91;100.00
12775;BME280;6451;42.630;23.382;2022-10-17T07:45:08;95930.84;;;11.08;100.00
12775;BME280;6451;42.630;23.382;2022-10-17T07:47:37;95929.63;;;11.14;100.00
12775;BME280;6451;42.630;23.382;2022-10-17T07:50:05;95917.75;;;11.10;100.00
12775;BME280;6451;42.630;23.382;2022-10-17T07:52:32;95915.81;;;11.33;100.00
12775;BME280;6451;42.630;23.382;2022-10-17T07:54:59;95915.63;;;11.29;100.00
12775;BME280;6451;42.630;23.382;2022-10-17T07:57:27;95907.13;;;11.53;100.00
12775;BME280;6451;42.630;23.382;2022-10-17T07:59:54;95912.63;;;11.70;100.00
12775;BME280;6451;42.630;23.382;2022-10-17T08:02:22;95914.78;;;11.82;100.00
12775;BME280;6451;42.630;23.382;2022-10-17T08:04:50;95909.03;;;11.92;100.00
12775;BME280;6451;42.630;23.382;2022-10-17T08:07:19;95903.16;;;12.16;100.00
12775;BME280;6451;42.630;23.382;2022-10-17T08:09:46;95900.31;;;12.30;100.00
12775;BME280;6451;42.630;23.382;2022-10-17T08:12:14;95847.13;;;11.98;100.00
12775;BME280;6451;42.630;23.382;2022-10-17T08:14:42;95894.41;;;12.45;100.00
12775;BME280;6451;42.630;23.382;2022-10-17T08:17:10;95892.31;;;12.51;100.00
12775;BME280;6451;42.630;23.382;2022-10-17T08:19:38;95892.63;;;12.84;100.00
12775;BME280;6451;42.630;23.382;2022-10-17T08:22:05;95904.31;;;12.85;100.00
12775;BME280;6451;42.630;23.382;2022-10-17T08:24:32;95899.53;;;12.82;100.00
12775;BME280;6451;42.630;23.382;2022-10-17T08:26:59;95884.47;;;12.84;100.00
12775;BME280;6451;42.630;23.382;2022-10-17T08:29:26;95871.81;;;12.88;100.00
12775;BME280;6451;42.630;23.382;2022-10-17T08:31:55;95892.59;;;13.27;100.00
12775;BME280;6451;42.630;23.382;2022-10-17T08:34:23;95892.88;;;13.34;100.00
12775;BME280;6451;42.630;23.382;2022-10-17T08:36:50;95855.97;;;13.37;100.00
12775;BME280;6451;42.630;23.382;2022-10-17T08:39:17;95890.41;;;13.59;100.00
12775;BME280;6451;42.630;23.382;2022-10-17T08:41:59;95887.78;;;13.62;100.00
12775;BME280;6451;42.630;23.382;2022-10-17T08:44:38;95897.44;;;13.60;100.00
12775;BME280;6451;42.630;23.382;2022-10-17T08:47:12;95895.59;;;13.81;98.50
12775;BME280;6451;42.630;23.382;2022-10-17T08:49:42;95895.78;;;13.76;98.45
12775;BME280;6451;42.630;23.382;2022-10-17T08:52:17;95902.88;;;13.69;92.74
12775;BME280;6451;42.630;23.382;2022-10-17T08:54:47;95852.84;;;13.56;91.17
12775;BME280;6451;42.630;23.382;2022-10-17T08:57:15;95889.63;;;13.88;90.32
12775;BME280;6451;42.630;23.382;2022-10-17T08:59:44;95866.94;;;13.67;87.79
12775;BME280;6451;42.630;23.382;2022-10-17T09:02:26;95900.00;;;13.95;86.15
12775;BME280;6451;42.630;23.382;2022-10-17T09:05:14;95892.47;;;13.91;84.10
12775;BME280;6451;42.630;23.382;2022-10-17T09:07:51;95886.63;;;14.02;83.68
12775;BME280;6451;42.630;23.382;2022-10-17T09:10:24;95893.84;;;14.06;84.57
12775;BME280;6451;42.630;23.382;2022-10-17T09:13:08;95896.28;;;14.29;83.92
12775;BME280;6451;42.630;23.382;2022-10-17T09:15:48;95909.53;;;14.39;75.41
12775;BME280;6451;42.630;23.382;2022-10-17T09:18:25;95901.00;;;14.40;79.46
12775;BME280;6451;42.630;23.382;2022-10-17T09:20:56;95809.34;;;13.89;77.82
12775;BME280;6451;42.630;23.382;2022-10-17T09:23:29;95898.31;;;14.61;75.41
12775;BME280;6451;42.630;23.382;2022-10-17T09:25:59;95904.78;;;14.78;75.57
12775;BME280;6451;42.630;23.382;2022-10-17T09:28:29;95890.19;;;14.73;75.23
12775;BME280;6451;42.630;23.382;2022-10-17T09:31:00;95909.50;;;14.68;73.29
12775;BME280;6451;42.630;23.382;2022-10-17T09:33:32;95904.31;;;14.76;71.08
12775;BME280;6451;42.630;23.382;2022-10-17T09:36:02;95899.03;;;14.70;70.51
12775;BME280;6451;42.630;23.382;2022-10-17T09:38:35;95876.38;;;14.70;69.26
12775;BME280;6451;42.630;23.382;2022-10-17T09:41:06;95839.53;;;14.55;70.18
12775;BME280;6451;42.630;23.382;2022-10-17T09:43:39;95815.34;;;14.45;69.39
12775;BME280;6451;42.630;23.382;2022-10-17T09:46:09;95884.44;;;15.20;69.18
12775;BME280;6451;42.630;23.382;2022-10-17T09:48:43;95889.31;;;15.15;66.19
12775;BME280;6451;42.630;23.382;2022-10-17T09:51:12;95884.66;;;15.15;64.90
12775;BME280;6451;42.630;23.382;2022-10-17T09:53:42;95869.91;;;14.95;66.05
12775;BME280;6451;42.630;23.382;2022-10-17T09:56:13;95696.44;;;13.94;66.34
12775;BME280;6451;42.630;23.382;2022-10-17T09:58:41;95876.69;;;15.22;65.51
12775;BME280;6451;42.630;23.382;2022-10-17T10:01:17;95884.00;;;15.30;65.79
12775;BME280;6451;42.630;23.382;2022-10-17T10:03:46;95876.59;;;15.31;61.86
12775;BME280;6451;42.630;23.382;2022-10-17T10:06:14;95873.75;;;15.40;60.94
12775;BME280;6451;42.630;23.382;2022-10-17T10:08:50;95873.59;;;15.57;61.37
12775;BME280;6451;42.630;23.382;2022-10-17T10:11:18;95865.69;;;15.43;59.04
12775;BME280;6451;42.630;23.382;2022-10-17T10:13:48;95860.00;;;15.61;59.00
12775;BME280;6451;42.630;23.382;2022-10-17T10:16:19;95878.69;;;15.46;57.51
12775;BME280;6451;42.630;23.382;2022-10-17T10:18:49;95866.63;;;15.60;57.04
12775;BME280;6451;42.630;23.382;2022-10-17T10:21:18;95871.00;;;15.73;57.58
12775;BME280;6451;42.630;23.382;2022-10-17T10:24:03;95874.66;;;15.65;57.46
12775;BME280;6451;42.630;23.382;2022-10-17T10:26:35;95862.44;;;15.87;54.20
12775;BME280;6451;42.630;23.382;2022-10-17T10:29:06;95855.47;;;16.01;53.67
12775;BME280;6451;42.630;23.382;2022-10-17T10:31:46;95855.13;;;16.15;55.49
12775;BME280;6451;42.630;23.382;2022-10-17T10:34:18;95840.75;;;16.06;54.93
12775;BME280;6451;42.630;23.382;2022-10-17T10:36:52;95833.25;;;16.03;54.09
12775;BME280;6451;42.630;23.382;2022-10-17T10:39:27;95852.72;;;16.13;51.07
12775;BME280;6451;42.630;23.382;2022-10-17T10:41:54;95854.91;;;16.08;54.88
12775;BME280;6451;42.630;23.382;2022-10-17T10:44:25;95801.88;;;15.76;52.36
12775;BME280;6451;42.630;23.382;2022-10-17T10:47:13;95853.97;;;16.16;52.87
12775;BME280;6451;42.630;23.382;2022-10-17T10:49:43;95844.28;;;16.19;54.58
12775;BME280;6451;42.630;23.382;2022-10-17T10:52:16;95843.09;;;16.32;54.12
12775;BME280;6451;42.630;23.382;2022-10-17T10:54:52;95843.59;;;16.22;53.56
12775;BME280;6451;42.630;23.382;2022-10-17T10:57:23;95836.38;;;16.29;52.65
12775;BME280;6451;42.630;23.382;2022-10-17T10:59:57;95837.28;;;16.33;51.65
12775;BME280;6451;42.630;23.382;2022-10-17T11:02:29;95792.47;;;16.13;50.60
12775;BME280;6451;42.630;23.382;2022-10-17T11:05:03;95824.59;;;16.41;50.50
12775;BME280;6451;42.630;23.382;2022-10-17T11:07:35;95825.47;;;16.57;50.12
12775;BME280;6451;42.630;23.382;2022-10-17T11:10:10;95815.72;;;16.72;49.18
12775;BME280;6451;42.630;23.382;2022-10-17T11:12:40;95828.56;;;16.84;48.87
12775;BME280;6451;42.630;23.382;2022-10-17T11:15:18;95807.88;;;16.86;48.94
12775;BME280;6451;42.630;23.382;2022-10-17T11:17:54;95796.47;;;16.84;49.07
12775;BME280;6451;42.630;23.382;2022-10-17T11:20:29;95808.25;;;17.01;49.07
12775;BME280;6451;42.630;23.382;2022-10-17T11:23:03;95811.78;;;16.85;49.36
12775;BME280;6451;42.630;23.382;2022-10-17T11:25:37;95813.09;;;16.63;49.19
12775;BME280;6451;42.630;23.382;2022-10-17T11:28:12;95819.72;;;16.75;47.81
12775;BME280;6451;42.630;23.382;2022-10-17T11:30:44;95810.78;;;16.78;47.24
12775;BME280;6451;42.630;23.382;2022-10-17T11:33:16;95806.69;;;17.00;46.83
12775;BME280;6451;42.630;23.382;2022-10-17T11:35:46;95791.72;;;16.97;47.65
12775;BME280;6451;42.630;23.382;2022-10-17T11:38:17;95807.78;;;17.11;47.17
12775;BME280;6451;42.630;23.382;2022-10-17T11:40:49;95801.56;;;17.14;47.12
12775;BME280;6451;42.630;23.382;2022-10-17T11:43:19;95808.41;;;17.20;46.62
12775;BME280;6451;42.630;23.382;2022-10-17T11:45:55;95802.81;;;17.16;46.41
12775;BME280;6451;42.630;23.382;2022-10-17T11:48:26;95787.41;;;17.12;46.58
12775;BME280;6451;42.630;23.382;2022-10-17T11:51:03;95792.00;;;17.08;47.63
12775;BME280;6451;42.630;23.382;2022-10-17T11:53:43;95793.41;;;17.17;47.59
12775;BME280;6451;42.630;23.382;2022-10-17T11:56:11;95786.34;;;17.16;47.06
12775;BME280;6451;42.630;23.382;2022-10-17T11:58:45;95790.66;;;17.17;45.67
12775;BME280;6451;42.630;23.382;2022-10-17T12:01:23;95787.59;;;17.35;45.25
12775;BME280;6451;42.630;23.382;2022-10-17T12:04:10;95766.25;;;17.12;44.62
12775;BME280;6451;42.630;23.382;2022-10-17T12:06:50;95778.75;;;17.41;44.45
12775;BME280;6451;42.630;23.382;2022-10-17T12:09:25;95786.88;;;17.54;44.75
12775;BME280;6451;42.630;23.382;2022-10-17T12:11:59;95766.06;;;17.52;44.81
12775;BME280;6451;42.630;23.382;2022-10-17T12:14:40;95785.41;;;17.72;44.53
12775;BME280;6451;42.630;23.382;2022-10-17T12:17:37;95783.63;;;17.64;44.50
12775;BME280;6451;42.630;23.382;2022-10-17T12:20:34;95725.47;;;17.11;45.84
12775;BME280;6451;42.630;23.382;2022-10-17T12:23:20;95781.03;;;17.39;44.77
12775;BME280;6451;42.630;23.382;2022-10-17T12:25:51;95752.19;;;17.30;45.01
12775;BME280;6451;42.630;23.382;2022-10-17T12:28:25;95779.63;;;17.45;45.25
12775;BME280;6451;42.630;23.382;2022-10-17T12:30:57;95775.13;;;17.37;45.77
12775;BME280;6451;42.630;23.382;2022-10-17T12:33:30;95767.78;;;17.41;45.96
12775;BME280;6451;42.630;23.382;2022-10-17T12:42:32;95759.88;;;17.40;45.39
12775;BME280;6451;42.630;23.382;2022-10-17T12:45:45;95767.66;;;17.54;45.07
12775;BME280;6451;42.630;23.382;2022-10-17T12:51:19;95763.25;;;17.65;44.05
12775;BME280;6451;42.630;23.382;2022-10-17T12:53:52;95742.09;;;17.49;43.53
12775;BME280;6451;42.630;23.382;2022-10-17T12:56:30;95761.03;;;17.70;43.90
12775;BME280;6451;42.630;23.382;2022-10-17T12:59:07;95755.53;;;17.55;44.01
12775;BME280;6451;42.630;23.382;2022-10-17T13:01:36;95769.78;;;17.60;44.33
12775;BME280;6451;42.630;23.382;2022-10-17T13:04:08;95774.41;;;17.56;44.49
12775;BME280;6451;42.630;23.382;2022-10-17T13:06:38;95742.28;;;17.41;44.26
12775;BME280;6451;42.630;23.382;2022-10-17T13:09:16;95758.63;;;17.53;43.57
12775;BME280;6451;42.630;23.382;2022-10-17T13:11:44;95761.13;;;17.58;43.36
12775;BME280;6451;42.630;23.382;2022-10-17T13:14:15;95749.38;;;17.42;42.58
12775;BME280;6451;42.630;23.382;2022-10-17T13:16:50;95762.09;;;17.66;42.27
12775;BME280;6451;42.630;23.382;2022-10-17T13:19:20;95758.97;;;17.67;42.38
12775;BME280;6451;42.630;23.382;2022-10-17T13:21:51;95758.53;;;17.65;42.47
12775;BME280;6451;42.630;23.382;2022-10-17T13:24:22;95762.72;;;17.59;39.75
12775;BME280;6451;42.630;23.382;2022-10-17T13:26:49;95751.91;;;17.66;39.05
12775;BME280;6451;42.630;23.382;2022-10-17T13:29:17;95766.66;;;17.93;38.40
12775;BME280;6451;42.630;23.382;2022-10-17T13:31:51;95760.56;;;17.84;39.20